createdAt,value
2019-04-27T10:05:37.584Z,2.73
2019-04-27T10:08:09.600Z,3.40
2019-04-27T10:10:38.689Z,2.33
2019-04-27T10:13:07.585Z,2.00
2019-04-27T10:15:36.693Z,3.20
2019-04-27T10:18:06.072Z,3.40
2019-04-27T10:20:40.394Z,2.83
2019-04-27T10:23:06.388Z,3.07
2019-04-27T10:25:35.547Z,2.60
2019-04-27T10:28:08.089Z,2.37
2019-04-27T10:30:36.997Z,2.23
2019-04-27T10:33:08.055Z,1.63
2019-04-27T10:35:36.598Z,1.80
2019-04-27T10:38:06.683Z,2.00
2019-04-27T10:40:35.563Z,1.97
2019-04-27T10:43:06.139Z,2.47
2019-04-27T10:45:36.038Z,1.70
2019-04-27T10:48:05.849Z,2.23
2019-04-27T10:50:36.435Z,2.60
2019-04-27T10:53:06.971Z,2.37
2019-04-27T10:55:36.485Z,2.50
2019-04-27T10:58:05.539Z,2.00
2019-04-27T11:00:46.260Z,1.20
2019-04-27T11:03:17.318Z,1.30
2019-04-27T11:06:15.998Z,1.57
2019-04-27T11:08:46.476Z,1.30
2019-04-27T11:11:15.516Z,1.40
2019-04-27T11:13:46.061Z,1.33
2019-04-27T11:16:15.073Z,1.23
2019-04-27T11:18:44.850Z,1.13
2019-04-27T11:21:13.659Z,1.37
2019-04-27T11:23:42.457Z,0.90
2019-04-27T11:26:11.444Z,1.30
2019-04-27T11:28:42.604Z,1.27
2019-04-27T11:31:11.207Z,1.37
2019-04-27T11:33:40.045Z,1.30
2019-04-27T11:36:26.924Z,1.10
2019-04-27T11:38:56.652Z,1.13
2019-04-27T11:41:26.278Z,1.40
2019-04-27T11:43:56.510Z,1.00
2019-04-27T11:46:26.680Z,1.43
2019-04-27T11:48:58.047Z,1.20
2019-04-27T11:51:26.836Z,1.00
2019-04-27T11:53:55.659Z,1.20
2019-04-27T11:56:27.291Z,1.03
2019-04-27T11:58:56.036Z,0.80
2019-04-27T12:01:26.933Z,0.90
2019-04-27T12:03:55.971Z,1.13
2019-04-27T12:06:25.846Z,0.93
2019-04-27T12:08:55.207Z,1.07
2019-04-27T12:11:26.015Z,1.00
2019-04-27T12:13:56.177Z,1.00
2019-04-27T12:16:26.214Z,0.80
2019-04-27T12:18:56.395Z,1.23
2019-04-27T12:21:25.385Z,1.17
2019-04-27T12:23:54.467Z,0.83
2019-04-27T12:26:31.472Z,1.27
2019-04-27T12:29:01.745Z,0.80
